createdAt,value
2022-08-23T00:02:23.217Z,100560.89
2022-08-23T00:05:08.184Z,100558.42
2022-08-23T00:07:45.947Z,100556.80
2022-08-23T00:10:46.679Z,100553.48
2022-08-23T00:13:25.644Z,100554.95
2022-08-23T00:16:23.697Z,100558.73
2022-08-23T00:19:09.743Z,100560.96
2022-08-23T00:22:09.111Z,100565.13
2022-08-23T00:24:40.937Z,100562.48
2022-08-23T00:27:30.043Z,100561.13
2022-08-23T00:30:08.614Z,100566.02
2022-08-23T00:32:41.540Z,100566.39
2022-08-23T00:35:26.391Z,100565.05
2022-08-23T00:38:32.810Z,100556.73
2022-08-23T00:41:05.189Z,100559.20
2022-08-23T00:43:57.624Z,100567.52
2022-08-23T00:47:21.140Z,100564.26
2022-08-23T00:49:55.934Z,100559.40
2022-08-23T00:52:51.620Z,100559.48
2022-08-23T00:55:22.047Z,100555.20
2022-08-23T00:58:18.744Z,100552.42
2022-08-23T01:00:59.471Z,100549.55
2022-08-23T01:03:39.451Z,100549.69
2022-08-23T01:06:19.649Z,100550.36
2022-08-23T01:09:14.186Z,100546.29
2022-08-23T01:11:49.871Z,100543.20
2022-08-23T01:14:34.170Z,100541.59
2022-08-23T01:17:17.496Z,100539.60
2022-08-23T01:20:15.092Z,100537.58
2022-08-23T01:22:54.532Z,100536.19
2022-08-23T01:25:31.784Z,100537.06
2022-08-23T01:28:01.020Z,100538.25
2022-08-23T01:30:38.508Z,100534.04
2022-08-23T01:33:13.648Z,100538.80
2022-08-23T01:36:16.824Z,100539.34
2022-08-23T01:38:54.253Z,100535.50
2022-08-23T01:45:36.483Z,100537.59
2022-08-23T01:53:01.504Z,100542.23
2022-08-23T01:55:53.266Z,100548.67
2022-08-23T01:59:13.315Z,100554.07
2022-08-23T02:02:05.305Z,100554.05
2022-08-23T02:05:12.575Z,100557.58
2022-08-23T02:08:20.077Z,100568.29
2022-08-23T02:10:50.978Z,100561.90
2022-08-23T02:13:40.190Z,100551.55
2022-08-23T02:16:33.716Z,100552.24
2022-08-23T02:19:17.885Z,100560.81
2022-08-23T02:22:10.762Z,100568.63
2022-08-23T02:25:12.920Z,100570.66
2022-08-23T02:28:03.854Z,100582.52
2022-08-23T02:30:53.612Z,100587.98
2022-08-23T02:33:44.081Z,100575.60
2022-08-23T02:36:30.118Z,100572.88
2022-08-23T02:43:27.446Z,100556.56
2022-08-23T02:46:25.375Z,100553.42
2022-08-23T02:49:42.766Z,100558.27
2022-08-23T02:52:40.541Z,100556.56
2022-08-23T02:55:46.265Z,100563.77
2022-08-23T02:58:45.825Z,100565.00
2022-08-23T03:01:38.074Z,100563.23
2022-08-23T03:04:32.578Z,100563.99
2022-08-23T03:07:42.574Z,100567.83
2022-08-23T03:10:28.198Z,100572.95
2022-08-23T03:13:53.435Z,100569.66
2022-08-23T03:16:58.174Z,100576.15
2022-08-23T03:19:48.458Z,100578.40
2022-08-23T03:24:11.037Z,100580.26
2022-08-23T03:27:20.648Z,100578.98
2022-08-23T03:30:23.874Z,100574.68
2022-08-23T03:37:13.342Z,100571.96
2022-08-23T03:39:45.958Z,100575.33
2022-08-23T03:47:15.118Z,100573.02
2022-08-23T03:50:08.702Z,100571.02
2022-08-23T03:57:38.599Z,100565.91
2022-08-23T04:00:44.130Z,100566.30
2022-08-23T04:04:15.140Z,100567.81
2022-08-23T04:12:03.739Z,100577.90
2022-08-23T04:14:48.419Z,100573.45
2022-08-23T04:22:57.773Z,100575.80
2022-08-23T04:25:50.012Z,100573.34
2022-08-23T04:29:01.704Z,100572.85
2022-08-23T04:31:44.620Z,100576.41
2022-08-23T04:34:39.496Z,100572.71
2022-08-23T04:37:28.534Z,100575.99
2022-08-23T04:40:35.906Z,100574.41
2022-08-23T04:43:47.725Z,100571.92
2022-08-23T04:46:55.494Z,100572.83
2022-08-23T04:49:47.770Z,100577.37
2022-08-23T04:52:36.807Z,100576.08
2022-08-23T04:55:30.140Z,100581.61
2022-08-23T04:58:22.440Z,100584.79
2022-08-23T05:01:02.670Z,100583.58
2022-08-23T05:03:37.073Z,100582.66
2022-08-23T05:06:26.539Z,100585.90
2022-08-23T05:14:44.528Z,100590.06
2022-08-23T05:17:24.941Z,100593.86
2022-08-23T05:20:15.659Z,100598.46
2022-08-23T05:23:32.332Z,100608.13
2022-08-23T05:26:23.985Z,100611.84
2022-08-23T05:33:34.719Z,100624.86
2022-08-23T05:41:42.055Z,100628.66
2022-08-23T05:44:20.235Z,100627.42
2022-08-23T05:47:15.856Z,100630.42
2022-08-23T05:50:17.160Z,100630.01
2022-08-23T05:53:27.490Z,100638.83
2022-08-23T05:56:23.538Z,100645.48
2022-08-23T05:59:12.354Z,100646.73
2022-08-23T06:01:45.302Z,100653.39
2022-08-23T06:04:18.627Z,100653.42
2022-08-23T06:06:48.367Z,100656.01
2022-08-23T06:09:50.253Z,100657.45
2022-08-23T06:12:42.515Z,100659.31
2022-08-23T06:15:34.630Z,100656.95
2022-08-23T06:18:07.254Z,100664.11
2022-08-23T06:21:04.569Z,100663.11
2022-08-23T06:24:09.042Z,100666.98
2022-08-23T06:26:46.032Z,100670.45
2022-08-23T06:29:35.335Z,100669.08
2022-08-23T06:32:40.332Z,100675.55
2022-08-23T06:40:53.373Z,100686.16
2022-08-23T06:43:42.717Z,100685.66
2022-08-23T06:46:35.905Z,100686.45
2022-08-23T06:49:19.410Z,100683.50
2022-08-23T06:51:57.988Z,100687.78
2022-08-23T06:55:00.755Z,100689.48
2022-08-23T06:58:21.976Z,100691.55
2022-08-23T07:01:44.060Z,100691.20
2022-08-23T07:04:25.858Z,100691.81
2022-08-23T07:07:18.631Z,100689.34
2022-08-23T07:09:55.071Z,100695.42
2022-08-23T07:12:29.011Z,100696.95
2022-08-23T07:15:09.428Z,100699.88
2022-08-23T07:17:44.835Z,100704.66
2022-08-23T07:20:39.171Z,100702.11
2022-08-23T07:23:35.049Z,100705.33
2022-08-23T07:26:21.060Z,100702.99
2022-08-23T07:28:59.218Z,100708.64
2022-08-23T07:31:33.462Z,100708.21
2022-08-23T07:34:08.465Z,100716.96
2022-08-23T07:36:43.965Z,100723.20
2022-08-23T07:40:00.990Z,100728.69
2022-08-23T07:42:44.768Z,100729.05
2022-08-23T07:54:48.386Z,100733.60
2022-08-23T07:57:47.990Z,100738.71
2022-08-23T08:01:08.462Z,100741.86
2022-08-23T08:03:46.766Z,100741.89
2022-08-23T08:06:39.208Z,100749.70
2022-08-23T08:09:14.597Z,100757.92
2022-08-23T08:11:46.926Z,100759.00
2022-08-23T08:14:19.754Z,100754.81
2022-08-23T08:16:58.551Z,100757.77
2022-08-23T08:20:05.610Z,100756.00
2022-08-23T08:23:02.147Z,100755.36
2022-08-23T08:26:01.526Z,100759.55
2022-08-23T08:28:42.019Z,100763.16
2022-08-23T08:31:23.191Z,100763.58
2022-08-23T08:34:50.742Z,100761.28
2022-08-23T08:37:20.433Z,100763.40
2022-08-23T08:39:58.525Z,100762.56
2022-08-23T08:42:51.921Z,100759.40
2022-08-23T08:45:25.563Z,100760.77
2022-08-23T08:48:03.132Z,100763.45
2022-08-23T08:50:43.193Z,100766.74
2022-08-23T08:53:22.894Z,100767.91
2022-08-23T08:56:24.382Z,100756.60
2022-08-23T08:59:07.822Z,100758.20
2022-08-23T09:01:38.542Z,100753.98
2022-08-23T09:04:10.297Z,100755.20
2022-08-23T09:06:56.663Z,100756.72
2022-08-23T09:09:42.560Z,100758.77
2022-08-23T09:12:25.920Z,100760.60
2022-08-23T09:15:12.389Z,100765.92
2022-08-23T09:17:45.365Z,100762.69
2022-08-23T09:20:16.090Z,100770.93
2022-08-23T09:22:50.717Z,100774.45
2022-08-23T09:25:25.514Z,100774.25
2022-08-23T09:28:02.096Z,100775.25
2022-08-23T09:30:53.347Z,100777.59
2022-08-23T09:33:26.211Z,100782.14
2022-08-23T09:36:14.965Z,100778.90
2022-08-23T09:38:54.112Z,100777.00
2022-08-23T09:41:27.550Z,100776.06
2022-08-23T09:44:01.254Z,100778.52
2022-08-23T09:46:33.214Z,100773.33
2022-08-23T09:49:23.793Z,100771.77
2022-08-23T09:51:56.083Z,100773.27
2022-08-23T09:54:32.572Z,100768.66
2022-08-23T09:57:09.880Z,100767.50
2022-08-23T09:59:43.881Z,100767.28
2022-08-23T10:02:29.951Z,100770.45
2022-08-23T10:05:02.511Z,100767.87
2022-08-23T10:07:38.411Z,100768.24
2022-08-23T10:10:25.144Z,100766.02
2022-08-23T10:12:56.218Z,100761.05
2022-08-23T10:15:40.839Z,100764.02
2022-08-23T10:18:18.407Z,100760.98
2022-08-23T10:20:57.066Z,100760.56
2022-08-23T10:23:38.160Z,100766.08
2022-08-23T10:26:14.441Z,100763.92
2022-08-23T10:29:09.655Z,100771.68
2022-08-23T10:31:46.775Z,100773.28
2022-08-23T10:34:31.917Z,100769.48
2022-08-23T10:37:21.137Z,100763.56
2022-08-23T10:40:03.687Z,100768.48
2022-08-23T10:42:43.327Z,100759.88
2022-08-23T10:45:29.794Z,100762.79
2022-08-23T10:48:13.273Z,100767.58
2022-08-23T10:50:52.027Z,100759.41
2022-08-23T10:53:34.073Z,100760.46
2022-08-23T10:56:03.154Z,100767.31
2022-08-23T10:58:41.389Z,100772.34
2022-08-23T11:01:22.748Z,100767.50
2022-08-23T11:04:04.550Z,100769.04
2022-08-23T11:06:50.608Z,100770.77
2022-08-23T11:09:53.511Z,100772.39
2022-08-23T11:12:29.899Z,100778.02
2022-08-23T11:15:44.957Z,100784.52
2022-08-23T11:18:36.869Z,100786.29
2022-08-23T11:21:10.698Z,100787.04
2022-08-23T11:23:55.406Z,100786.50
2022-08-23T11:27:06.577Z,100778.55
2022-08-23T11:30:49.249Z,100775.86
2022-08-23T11:33:27.259Z,100774.12
2022-08-23T11:36:17.611Z,100768.05
2022-08-23T11:39:07.046Z,100763.91
2022-08-23T11:42:05.487Z,100764.21
2022-08-23T11:44:47.039Z,100756.91
2022-08-23T11:47:26.705Z,100747.67
2022-08-23T11:50:18.465Z,100753.69
2022-08-23T11:53:04.555Z,100747.14
2022-08-23T11:56:01.385Z,100756.03
2022-08-23T11:58:47.282Z,100757.66
2022-08-23T12:01:27.509Z,100756.65
2022-08-23T12:04:11.154Z,100759.54
2022-08-23T12:06:43.624Z,100761.52
2022-08-23T12:09:55.685Z,100762.45
2022-08-23T12:12:39.266Z,100757.38
2022-08-23T12:15:18.287Z,100754.48
2022-08-23T12:18:11.220Z,100752.77
2022-08-23T12:20:40.628Z,100751.83
2022-08-23T12:23:35.573Z,100757.17
2022-08-23T12:26:30.657Z,100757.30
2022-08-23T12:29:27.348Z,100758.27
2022-08-23T12:32:07.328Z,100761.56
2022-08-23T12:34:47.243Z,100764.56
2022-08-23T12:37:25.204Z,100762.14
2022-08-23T12:40:01.954Z,100761.35
2022-08-23T12:42:37.005Z,100768.60
2022-08-23T12:45:15.022Z,100768.77
2022-08-23T12:47:57.790Z,100764.64
2022-08-23T12:50:32.942Z,100765.43
2022-08-23T12:53:06.181Z,100764.44
2022-08-23T12:55:38.250Z,100761.10
2022-08-23T12:58:09.015Z,100762.06
2022-08-23T13:00:42.963Z,100763.21
2022-08-23T13:03:17.998Z,100760.77
2022-08-23T13:05:52.144Z,100764.25
2022-08-23T13:08:34.298Z,100761.38
2022-08-23T13:11:08.124Z,100758.92
2022-08-23T13:13:40.258Z,100764.02
2022-08-23T13:16:28.183Z,100759.36
2022-08-23T13:19:12.093Z,100757.59
2022-08-23T13:21:40.869Z,100762.02
2022-08-23T13:24:37.967Z,100762.04
2022-08-23T13:27:19.556Z,100769.96
2022-08-23T13:29:57.828Z,100770.58
2022-08-23T13:32:29.962Z,100770.14
2022-08-23T13:35:26.759Z,100767.45
2022-08-23T13:38:01.844Z,100770.14
2022-08-23T13:40:39.149Z,100773.33
2022-08-23T13:43:12.561Z,100772.42
2022-08-23T13:45:48.478Z,100771.01
2022-08-23T13:48:21.018Z,100773.14
2022-08-23T13:50:53.268Z,100767.36
2022-08-23T13:53:25.558Z,100762.96
2022-08-23T13:55:58.197Z,100763.62
2022-08-23T13:58:30.612Z,100762.56
2022-08-23T14:01:02.349Z,100768.17
2022-08-23T14:03:32.381Z,100769.48
2022-08-23T14:06:01.485Z,100765.28
2022-08-23T14:08:30.742Z,100760.98
2022-08-23T14:11:02.965Z,100761.77
2022-08-23T14:13:33.129Z,100757.98
2022-08-23T14:21:43.476Z,100763.87
2022-08-23T14:24:12.420Z,100758.73
2022-08-23T14:26:50.090Z,100763.73
2022-08-23T14:29:22.542Z,100757.98
2022-08-23T14:31:55.547Z,100757.49
2022-08-23T14:34:24.837Z,100758.92
2022-08-23T14:39:42.214Z,100754.22
2022-08-23T14:42:12.918Z,100759.92
2022-08-23T14:44:41.856Z,100753.64
2022-08-23T14:47:10.839Z,100769.22
2022-08-23T14:49:39.572Z,100769.64
2022-08-23T14:52:08.450Z,100769.56
2022-08-23T14:54:44.634Z,100770.09
2022-08-23T14:57:18.594Z,100771.27
2022-08-23T14:59:50.474Z,100764.92
2022-08-23T15:02:25.220Z,100766.61
2022-08-23T15:04:54.686Z,100761.55
2022-08-23T15:07:31.565Z,100755.80
2022-08-23T15:10:10.142Z,100755.59
2022-08-23T15:13:16.024Z,100750.04
2022-08-23T15:15:50.873Z,100752.68
2022-08-23T15:18:21.417Z,100751.50
2022-08-23T15:20:52.978Z,100749.64
2022-08-23T15:23:21.885Z,100752.52
2022-08-23T15:25:51.110Z,100758.01
2022-08-23T15:28:21.884Z,100754.67
2022-08-23T15:30:52.019Z,100749.49
2022-08-23T15:33:24.669Z,100742.41
2022-08-23T15:35:56.529Z,100745.56
2022-08-23T15:38:28.130Z,100744.25
2022-08-23T15:40:57.637Z,100740.84
2022-08-23T15:43:33.942Z,100739.08
2022-08-23T15:46:09.857Z,100734.16
2022-08-23T15:48:44.629Z,100728.17
2022-08-23T15:51:16.647Z,100730.33
2022-08-23T15:53:48.836Z,100731.98
2022-08-23T15:56:23.114Z,100729.50
2022-08-23T15:58:54.402Z,100728.23
2022-08-23T16:01:25.104Z,100729.56
2022-08-23T16:03:54.340Z,100726.65
2022-08-23T16:06:23.244Z,100724.75
2022-08-23T16:08:53.702Z,100725.64
2022-08-23T16:11:23.684Z,100725.17
2022-08-23T16:13:53.673Z,100727.06
2022-08-23T16:16:30.347Z,100725.79
2022-08-23T16:19:00.114Z,100729.42
2022-08-23T16:21:29.164Z,100724.79
2022-08-23T16:24:04.224Z,100720.50
2022-08-23T16:26:35.334Z,100719.02
2022-08-23T16:29:06.931Z,100713.41
2022-08-23T16:31:39.622Z,100711.83
2022-08-23T16:34:12.529Z,100711.40
2022-08-23T16:36:44.413Z,100710.89
2022-08-23T16:39:16.759Z,100714.39
2022-08-23T16:41:46.060Z,100715.23
2022-08-23T16:44:14.733Z,100712.64
2022-08-23T16:46:44.117Z,100714.81
2022-08-23T16:49:18.005Z,100713.27
2022-08-23T16:51:50.163Z,100705.41
2022-08-23T16:54:20.303Z,100704.77
2022-08-23T16:56:49.212Z,100714.41
2022-08-23T16:59:18.666Z,100714.04
2022-08-23T17:01:51.513Z,100718.17
2022-08-23T17:04:24.098Z,100718.39
2022-08-23T17:06:53.712Z,100714.94
2022-08-23T17:09:24.256Z,100719.97
2022-08-23T17:11:54.593Z,100714.81
2022-08-23T17:14:24.139Z,100719.19
2022-08-23T17:16:53.277Z,100716.48
2022-08-23T17:19:22.456Z,100724.20
2022-08-23T17:21:51.143Z,100727.85
2022-08-23T17:24:19.838Z,100734.95
2022-08-23T17:26:49.148Z,100734.02
2022-08-23T17:29:18.141Z,100729.13
2022-08-23T17:31:49.189Z,100726.29
2022-08-23T17:34:20.312Z,100724.73
2022-08-23T17:36:57.949Z,100728.56
2022-08-23T17:39:28.759Z,100730.09
2022-08-23T17:41:58.590Z,100723.02
2022-08-23T17:44:30.540Z,100717.83
2022-08-23T17:47:12.227Z,100709.90
2022-08-23T17:49:41.232Z,100710.11
2022-08-23T17:52:11.114Z,100716.03
2022-08-23T17:54:48.595Z,100716.50
2022-08-23T17:57:26.139Z,100721.67
2022-08-23T17:59:55.400Z,100724.71
2022-08-23T18:02:24.314Z,100722.85
2022-08-23T18:04:53.286Z,100724.73
2022-08-23T18:07:23.011Z,100724.73
2022-08-23T18:09:51.752Z,100725.05
2022-08-23T18:12:22.263Z,100731.99
2022-08-23T18:14:51.142Z,100737.86
2022-08-23T18:17:19.892Z,100744.02
2022-08-23T18:19:54.363Z,100730.98
2022-08-23T18:22:23.277Z,100727.57
2022-08-23T18:24:55.128Z,100730.30
2022-08-23T18:27:43.881Z,100733.30
2022-08-23T18:30:15.697Z,100734.77
2022-08-23T18:32:44.579Z,100742.13
2022-08-23T18:35:13.423Z,100742.73
2022-08-23T18:37:42.421Z,100748.70
2022-08-23T18:40:12.779Z,100750.98
2022-08-23T18:42:44.816Z,100754.20
2022-08-23T18:45:14.024Z,100755.41
2022-08-23T18:47:43.206Z,100752.32
2022-08-23T18:50:16.004Z,100749.20
2022-08-23T18:52:45.304Z,100750.95
2022-08-23T18:55:15.785Z,100744.02
2022-08-23T18:57:44.559Z,100743.93
2022-08-23T19:00:33.732Z,100742.84
2022-08-23T19:03:06.268Z,100739.54
2022-08-23T19:05:42.818Z,100742.84
2022-08-23T19:08:16.091Z,100742.58
2022-08-23T19:10:46.995Z,100747.14
2022-08-23T19:13:15.915Z,100758.75
2022-08-23T19:15:55.314Z,100764.23
2022-08-23T19:18:30.443Z,100769.45
2022-08-23T19:20:59.426Z,100771.90
2022-08-23T19:23:28.232Z,100764.52
2022-08-23T19:26:05.770Z,100758.15
2022-08-23T19:28:40.762Z,100761.05
2022-08-23T19:31:12.775Z,100766.05
2022-08-23T19:33:42.670Z,100764.06
2022-08-23T19:36:44.765Z,100765.58
2022-08-23T19:39:38.214Z,100776.33
2022-08-23T19:42:11.790Z,100771.90
2022-08-23T19:44:50.381Z,100767.59
2022-08-23T19:47:20.659Z,100769.80
2022-08-23T19:50:01.516Z,100773.11
2022-08-23T19:52:30.491Z,100768.80
2022-08-23T19:55:08.653Z,100770.78
2022-08-23T19:57:38.346Z,100779.81
2022-08-23T20:00:18.536Z,100782.95
2022-08-23T20:02:52.670Z,100786.39
2022-08-23T20:05:21.970Z,100790.42
2022-08-23T20:07:56.574Z,100788.44
2022-08-23T20:10:26.074Z,100783.98
2022-08-23T20:12:55.210Z,100781.95
2022-08-23T20:15:24.215Z,100782.30
2022-08-23T20:18:00.155Z,100787.27
2022-08-23T20:20:29.146Z,100780.66
2022-08-23T20:23:16.214Z,100783.33
2022-08-23T20:25:53.038Z,100781.98
2022-08-23T20:28:26.862Z,100776.38
2022-08-23T20:30:56.196Z,100776.72
2022-08-23T20:33:28.079Z,100781.58
2022-08-23T20:35:59.777Z,100783.69
2022-08-23T20:38:34.455Z,100788.41
2022-08-23T20:41:04.554Z,100787.09
2022-08-23T20:44:02.553Z,100785.99
2022-08-23T20:46:35.957Z,100790.86
2022-08-23T20:49:16.493Z,100794.80
2022-08-23T20:51:52.558Z,100801.79
2022-08-23T20:54:26.742Z,100802.92
2022-08-23T20:56:58.612Z,100798.92
2022-08-23T21:04:30.254Z,100801.12
2022-08-23T21:07:21.152Z,100800.89
2022-08-23T21:10:11.429Z,100794.66
2022-08-23T21:12:51.504Z,100791.98
2022-08-23T21:15:26.696Z,100791.68
2022-08-23T21:18:06.272Z,100782.59
2022-08-23T21:20:58.946Z,100789.37
2022-08-23T21:23:37.445Z,100790.94
2022-08-23T21:26:26.534Z,100786.60
2022-08-23T21:29:08.036Z,100782.90
2022-08-23T21:31:40.119Z,100781.23
2022-08-23T21:34:14.500Z,100780.08
2022-08-23T21:36:48.472Z,100779.70
2022-08-23T21:39:25.094Z,100776.94
2022-08-23T21:41:57.820Z,100770.94
2022-08-23T21:44:26.962Z,100775.64
2022-08-23T21:47:05.700Z,100773.08
2022-08-23T21:49:41.972Z,100768.88
2022-08-23T21:52:20.246Z,100762.66
2022-08-23T21:54:50.728Z,100761.98
2022-08-23T21:57:30.829Z,100767.23
2022-08-23T22:00:00.365Z,100763.39
2022-08-23T22:02:33.291Z,100761.58
2022-08-23T22:05:02.898Z,100758.61
2022-08-23T22:07:40.913Z,100758.06
2022-08-23T22:10:13.174Z,100757.89
2022-08-23T22:12:45.281Z,100748.72
2022-08-23T22:15:15.861Z,100745.91
2022-08-23T22:17:49.647Z,100742.07
2022-08-23T22:20:18.777Z,100736.02
2022-08-23T22:22:53.800Z,100734.52
2022-08-23T22:25:43.947Z,100735.95
2022-08-23T22:28:12.857Z,100736.81
2022-08-23T22:31:05.263Z,100736.99
2022-08-23T22:33:54.327Z,100734.02
2022-08-23T22:36:42.058Z,100734.22
2022-08-23T22:39:39.601Z,100730.55
2022-08-23T22:42:33.101Z,100732.80
2022-08-23T22:45:20.746Z,100729.17
2022-08-23T22:48:09.790Z,100731.98
2022-08-23T22:50:50.108Z,100724.15
2022-08-23T22:53:19.343Z,100716.55
2022-08-23T23:00:43.868Z,100712.04
2022-08-23T23:03:33.480Z,100714.23
2022-08-23T23:06:05.835Z,100708.80
2022-08-23T23:13:34.855Z,100708.13
2022-08-23T23:17:47.075Z,100705.63
2022-08-23T23:20:40.301Z,100704.44
2022-08-23T23:23:23.548Z,100708.32
2022-08-23T23:26:50.684Z,100708.56
2022-08-23T23:29:48.680Z,100711.10
2022-08-23T23:37:02.029Z,100714.80
2022-08-23T23:40:12.821Z,100718.30
2022-08-23T23:42:46.723Z,100721.33
2022-08-23T23:45:36.044Z,100722.31
2022-08-23T23:48:25.081Z,100718.42
2022-08-23T23:50:57.659Z,100717.27
2022-08-23T23:54:07.572Z,100720.17
2022-08-23T23:56:36.413Z,100722.18
2022-08-23T23:59:28.757Z,100726.21
